sensor_id;sensor_type;location;lat;lon;timestamp;P1;durP1;ratioP1;P2;durP2;ratioP2
6723;SDS011;3399;52.530;13.304;2022-08-19T00:01:07;8.85;;;8.07;;
6723;SDS011;3399;52.530;13.304;2022-08-19T00:03:33;8.65;;;7.95;;
6723;SDS011;3399;52.530;13.304;2022-08-19T00:05:59;9.40;;;8.70;;
6723;SDS011;3399;52.530;13.304;2022-08-19T00:08:24;8.52;;;7.82;;
6723;SDS011;3399;52.530;13.304;2022-08-19T00:10:50;9.50;;;8.77;;
6723;SDS011;3399;52.530;13.304;2022-08-19T00:13:16;8.82;;;8.13;;
6723;SDS011;3399;52.530;13.304;2022-08-19T00:15:41;8.90;;;8.25;;
6723;SDS011;3399;52.530;13.304;2022-08-19T00:18:09;9.13;;;7.72;;
6723;SDS011;3399;52.530;13.304;2022-08-19T00:20:35;9.25;;;8.50;;
6723;SDS011;3399;52.530;13.304;2022-08-19T00:23:00;8.85;;;8.18;;
6723;SDS011;3399;52.530;13.304;2022-08-19T00:25:26;8.65;;;7.95;;
6723;SDS011;3399;52.530;13.304;2022-08-19T00:27:51;9.85;;;9.00;;
6723;SDS011;3399;52.530;13.304;2022-08-19T00:30:16;9.38;;;8.13;;
6723;SDS011;3399;52.530;13.304;2022-08-19T00:32:42;9.98;;;8.80;;
6723;SDS011;3399;52.530;13.304;2022-08-19T00:35:08;8.35;;;7.63;;
6723;SDS011;3399;52.530;13.304;2022-08-19T00:37:34;7.80;;;6.95;;
6723;SDS011;3399;52.530;13.304;2022-08-19T00:40:00;23.70;;;8.68;;
6723;SDS011;3399;52.530;13.304;2022-08-19T00:42:27;9.05;;;8.18;;
6723;SDS011;3399;52.530;13.304;2022-08-19T00:44:53;8.80;;;8.10;;
6723;SDS011;3399;52.530;13.304;2022-08-19T00:47:18;8.73;;;7.93;;
6723;SDS011;3399;52.530;13.304;2022-08-19T00:49:45;8.23;;;7.63;;
6723;SDS011;3399;52.530;13.304;2022-08-19T00:52:20;9.57;;;8.73;;
6723;SDS011;3399;52.530;13.304;2022-08-19T00:54:53;9.73;;;8.52;;
6723;SDS011;3399;52.530;13.304;2022-08-19T00:57:22;9.65;;;8.50;;
6723;SDS011;3399;52.530;13.304;2022-08-19T00:59:53;8.82;;;7.95;;
6723;SDS011;3399;52.530;13.304;2022-08-19T01:02:21;9.40;;;8.60;;
6723;SDS011;3399;52.530;13.304;2022-08-19T01:04:46;8.50;;;7.70;;
6723;SDS011;3399;52.530;13.304;2022-08-19T01:07:12;9.70;;;8.40;;
6723;SDS011;3399;52.530;13.304;2022-08-19T01:09:37;7.90;;;7.25;;
6723;SDS011;3399;52.530;13.304;2022-08-19T01:12:03;9.15;;;8.45;;
6723;SDS011;3399;52.530;13.304;2022-08-19T01:14:29;10.65;;;8.88;;
6723;SDS011;3399;52.530;13.304;2022-08-19T01:16:55;9.80;;;8.80;;
6723;SDS011;3399;52.530;13.304;2022-08-19T01:19:27;8.75;;;8.02;;
6723;SDS011;3399;52.530;13.304;2022-08-19T01:21:58;9.23;;;8.32;;
6723;SDS011;3399;52.530;13.304;2022-08-19T01:24:41;9.43;;;8.55;;
6723;SDS011;3399;52.530;13.304;2022-08-19T01:27:07;9.10;;;8.00;;
6723;SDS011;3399;52.530;13.304;2022-08-19T01:29:33;9.30;;;8.00;;
6723;SDS011;3399;52.530;13.304;2022-08-19T01:32:00;8.02;;;7.38;;
6723;SDS011;3399;52.530;13.304;2022-08-19T01:34:26;9.45;;;8.55;;
6723;SDS011;3399;52.530;13.304;2022-08-19T01:36:51;9.07;;;8.20;;
6723;SDS011;3399;52.530;13.304;2022-08-19T01:39:18;8.80;;;8.05;;
6723;SDS011;3399;52.530;13.304;2022-08-19T01:41:49;8.57;;;7.80;;
6723;SDS011;3399;52.530;13.304;2022-08-19T01:44:15;9.00;;;8.30;;
6723;SDS011;3399;52.530;13.304;2022-08-19T01:46:41;8.40;;;7.60;;
6723;SDS011;3399;52.530;13.304;2022-08-19T01:49:08;8.77;;;7.80;;
6723;SDS011;3399;52.530;13.304;2022-08-19T01:51:35;8.50;;;7.70;;
6723;SDS011;3399;52.530;13.304;2022-08-19T01:54:01;8.48;;;7.72;;
6723;SDS011;3399;52.530;13.304;2022-08-19T01:56:27;8.82;;;8.00;;
6723;SDS011;3399;52.530;13.304;2022-08-19T01:58:55;9.98;;;9.00;;
6723;SDS011;3399;52.530;13.304;2022-08-19T02:01:26;9.15;;;8.25;;
6723;SDS011;3399;52.530;13.304;2022-08-19T02:03:52;10.82;;;8.20;;
6723;SDS011;3399;52.530;13.304;2022-08-19T02:06:19;9.05;;;8.25;;
6723;SDS011;3399;52.530;13.304;2022-08-19T02:08:45;9.70;;;8.77;;
6723;SDS011;3399;52.530;13.304;2022-08-19T02:11:17;9.80;;;8.60;;
6723;SDS011;3399;52.530;13.304;2022-08-19T02:13:54;8.93;;;8.10;;
6723;SDS011;3399;52.530;13.304;2022-08-19T02:16:20;8.05;;;7.25;;
6723;SDS011;3399;52.530;13.304;2022-08-19T02:18:46;9.13;;;8.32;;
6723;SDS011;3399;52.530;13.304;2022-08-19T02:21:16;9.75;;;8.68;;
6723;SDS011;3399;52.530;13.304;2022-08-19T02:23:44;9.83;;;8.80;;
6723;SDS011;3399;52.530;13.304;2022-08-19T02:26:10;10.07;;;9.20;;
6723;SDS011;3399;52.530;13.304;2022-08-19T02:28:37;11.07;;;8.30;;
6723;SDS011;3399;52.530;13.304;2022-08-19T02:31:03;10.20;;;9.20;;
6723;SDS011;3399;52.530;13.304;2022-08-19T02:33:34;10.57;;;9.48;;
6723;SDS011;3399;52.530;13.304;2022-08-19T02:35:59;10.17;;;9.37;;
6723;SDS011;3399;52.530;13.304;2022-08-19T02:38:29;9.90;;;9.00;;
6723;SDS011;3399;52.530;13.304;2022-08-19T02:40:56;10.33;;;9.23;;
6723;SDS011;3399;52.530;13.304;2022-08-19T02:43:24;10.30;;;9.40;;
6723;SDS011;3399;52.530;13.304;2022-08-19T02:45:50;10.10;;;9.20;;
6723;SDS011;3399;52.530;13.304;2022-08-19T02:48:18;10.33;;;9.37;;
6723;SDS011;3399;52.530;13.304;2022-08-19T02:50:44;10.63;;;9.73;;
6723;SDS011;3399;52.530;13.304;2022-08-19T02:53:11;9.18;;;8.38;;
6723;SDS011;3399;52.530;13.304;2022-08-19T02:55:42;9.25;;;8.35;;
6723;SDS011;3399;52.530;13.304;2022-08-19T02:58:09;9.10;;;8.35;;
6723;SDS011;3399;52.530;13.304;2022-08-19T03:00:34;8.68;;;7.85;;
6723;SDS011;3399;52.530;13.304;2022-08-19T03:03:00;8.60;;;7.90;;
6723;SDS011;3399;52.530;13.304;2022-08-19T03:05:25;9.27;;;8.37;;
6723;SDS011;3399;52.530;13.304;2022-08-19T03:07:52;9.33;;;8.60;;
6723;SDS011;3399;52.530;13.304;2022-08-19T03:10:18;9.23;;;8.33;;
6723;SDS011;3399;52.530;13.304;2022-08-19T03:12:43;8.57;;;7.78;;
6723;SDS011;3399;52.530;13.304;2022-08-19T03:15:11;9.75;;;8.85;;
6723;SDS011;3399;52.530;13.304;2022-08-19T03:17:36;10.07;;;9.07;;
6723;SDS011;3399;52.530;13.304;2022-08-19T03:20:02;9.52;;;8.73;;
6723;SDS011;3399;52.530;13.304;2022-08-19T03:22:28;8.88;;;8.18;;
6723;SDS011;3399;52.530;13.304;2022-08-19T03:24:54;9.10;;;8.30;;
6723;SDS011;3399;52.530;13.304;2022-08-19T03:27:20;9.43;;;8.68;;
6723;SDS011;3399;52.530;13.304;2022-08-19T03:29:46;8.70;;;8.00;;
6723;SDS011;3399;52.530;13.304;2022-08-19T03:32:11;10.27;;;9.27;;
6723;SDS011;3399;52.530;13.304;2022-08-19T03:34:37;9.20;;;8.50;;
6723;SDS011;3399;52.530;13.304;2022-08-19T03:37:05;9.27;;;8.45;;
6723;SDS011;3399;52.530;13.304;2022-08-19T03:39:32;10.27;;;9.23;;
6723;SDS011;3399;52.530;13.304;2022-08-19T03:41:57;9.90;;;9.10;;
6723;SDS011;3399;52.530;13.304;2022-08-19T03:44:27;9.75;;;8.93;;
6723;SDS011;3399;52.530;13.304;2022-08-19T03:46:54;11.23;;;10.23;;
6723;SDS011;3399;52.530;13.304;2022-08-19T03:49:21;10.85;;;9.80;;
6723;SDS011;3399;52.530;13.304;2022-08-19T03:51:50;9.90;;;9.20;;
6723;SDS011;3399;52.530;13.304;2022-08-19T03:54:20;9.43;;;8.65;;
6723;SDS011;3399;52.530;13.304;2022-08-19T03:56:48;9.23;;;8.35;;
6723;SDS011;3399;52.530;13.304;2022-08-19T03:59:18;10.10;;;9.10;;
6723;SDS011;3399;52.530;13.304;2022-08-19T04:01:51;8.80;;;8.10;;
6723;SDS011;3399;52.530;13.304;2022-08-19T04:04:17;10.80;;;8.93;;
6723;SDS011;3399;52.530;13.304;2022-08-19T04:06:43;9.50;;;8.50;;
6723;SDS011;3399;52.530;13.304;2022-08-19T04:09:10;9.50;;;8.70;;
6723;SDS011;3399;52.530;13.304;2022-08-19T04:11:40;8.40;;;7.70;;
6723;SDS011;3399;52.530;13.304;2022-08-19T04:14:08;9.82;;;8.93;;
6723;SDS011;3399;52.530;13.304;2022-08-19T04:16:36;9.57;;;8.77;;
6723;SDS011;3399;52.530;13.304;2022-08-19T04:19:02;9.88;;;8.88;;
6723;SDS011;3399;52.530;13.304;2022-08-19T04:21:29;9.18;;;8.38;;
6723;SDS011;3399;52.530;13.304;2022-08-19T04:23:55;10.35;;;9.45;;
6723;SDS011;3399;52.530;13.304;2022-08-19T04:26:23;9.53;;;8.73;;
6723;SDS011;3399;52.530;13.304;2022-08-19T04:28:51;9.98;;;8.98;;
6723;SDS011;3399;52.530;13.304;2022-08-19T04:31:21;9.95;;;9.05;;
6723;SDS011;3399;52.530;13.304;2022-08-19T04:33:55;10.07;;;9.18;;
6723;SDS011;3399;52.530;13.304;2022-08-19T04:36:24;9.77;;;8.93;;
6723;SDS011;3399;52.530;13.304;2022-08-19T04:38:55;8.45;;;7.65;;
6723;SDS011;3399;52.530;13.304;2022-08-19T04:41:22;8.98;;;8.18;;
6723;SDS011;3399;52.530;13.304;2022-08-19T04:44:06;9.07;;;8.27;;
6723;SDS011;3399;52.530;13.304;2022-08-19T04:46:32;9.27;;;8.38;;
6723;SDS011;3399;52.530;13.304;2022-08-19T04:48:59;8.57;;;7.88;;
6723;SDS011;3399;52.530;13.304;2022-08-19T04:51:25;9.95;;;8.95;;
6723;SDS011;3399;52.530;13.304;2022-08-19T04:53:51;8.93;;;7.70;;
6723;SDS011;3399;52.530;13.304;2022-08-19T04:56:17;8.50;;;7.80;;
6723;SDS011;3399;52.530;13.304;2022-08-19T04:58:51;7.93;;;7.28;;
6723;SDS011;3399;52.530;13.304;2022-08-19T05:01:19;8.90;;;8.02;;
6723;SDS011;3399;52.530;13.304;2022-08-19T05:03:47;8.90;;;8.00;;
6723;SDS011;3399;52.530;13.304;2022-08-19T05:06:14;8.23;;;7.50;;
6723;SDS011;3399;52.530;13.304;2022-08-19T05:08:43;8.90;;;8.07;;
6723;SDS011;3399;52.530;13.304;2022-08-19T05:11:10;7.77;;;7.10;;
6723;SDS011;3399;52.530;13.304;2022-08-19T05:13:38;7.20;;;6.70;;
6723;SDS011;3399;52.530;13.304;2022-08-19T05:16:04;8.25;;;7.40;;
6723;SDS011;3399;52.530;13.304;2022-08-19T05:18:30;8.57;;;7.82;;
6723;SDS011;3399;52.530;13.304;2022-08-19T05:21:15;8.57;;;7.07;;
6723;SDS011;3399;52.530;13.304;2022-08-19T05:24:02;8.93;;;8.10;;
6723;SDS011;3399;52.530;13.304;2022-08-19T05:26:28;8.93;;;7.97;;
6723;SDS011;3399;52.530;13.304;2022-08-19T05:28:54;8.48;;;7.78;;
6723;SDS011;3399;52.530;13.304;2022-08-19T05:31:20;10.00;;;7.25;;
6723;SDS011;3399;52.530;13.304;2022-08-19T05:33:46;8.13;;;7.50;;
6723;SDS011;3399;52.530;13.304;2022-08-19T05:36:12;7.93;;;7.20;;
6723;SDS011;3399;52.530;13.304;2022-08-19T05:38:39;8.30;;;7.63;;
6723;SDS011;3399;52.530;13.304;2022-08-19T05:41:08;8.20;;;7.50;;
6723;SDS011;3399;52.530;13.304;2022-08-19T05:43:35;8.80;;;8.00;;
6723;SDS011;3399;52.530;13.304;2022-08-19T05:46:02;8.10;;;7.50;;
6723;SDS011;3399;52.530;13.304;2022-08-19T05:48:29;8.68;;;7.97;;
6723;SDS011;3399;52.530;13.304;2022-08-19T05:50:56;8.35;;;7.75;;
6723;SDS011;3399;52.530;13.304;2022-08-19T05:53:21;9.48;;;8.68;;
6723;SDS011;3399;52.530;13.304;2022-08-19T05:55:47;9.15;;;8.35;;
6723;SDS011;3399;52.530;13.304;2022-08-19T05:58:12;8.82;;;7.93;;
6723;SDS011;3399;52.530;13.304;2022-08-19T06:00:38;8.40;;;7.60;;
6723;SDS011;3399;52.530;13.304;2022-08-19T06:03:04;9.18;;;8.07;;
6723;SDS011;3399;52.530;13.304;2022-08-19T06:05:30;9.30;;;8.43;;
6723;SDS011;3399;52.530;13.304;2022-08-19T06:07:56;9.32;;;8.30;;
6723;SDS011;3399;52.530;13.304;2022-08-19T06:10:24;8.85;;;8.05;;
6723;SDS011;3399;52.530;13.304;2022-08-19T06:12:51;9.07;;;8.38;;
6723;SDS011;3399;52.530;13.304;2022-08-19T06:15:16;9.40;;;8.70;;
6723;SDS011;3399;52.530;13.304;2022-08-19T06:17:42;9.40;;;8.57;;
6723;SDS011;3399;52.530;13.304;2022-08-19T06:20:13;8.95;;;8.15;;
6723;SDS011;3399;52.530;13.304;2022-08-19T06:22:40;8.65;;;7.95;;
6723;SDS011;3399;52.530;13.304;2022-08-19T06:25:06;9.48;;;8.68;;
6723;SDS011;3399;52.530;13.304;2022-08-19T06:27:34;8.80;;;8.10;;
6723;SDS011;3399;52.530;13.304;2022-08-19T06:30:00;9.15;;;8.35;;
6723;SDS011;3399;52.530;13.304;2022-08-19T06:32:26;8.45;;;7.70;;
6723;SDS011;3399;52.530;13.304;2022-08-19T06:34:51;8.30;;;7.63;;
6723;SDS011;3399;52.530;13.304;2022-08-19T06:37:17;15.25;;;9.50;;
6723;SDS011;3399;52.530;13.304;2022-08-19T06:39:43;9.70;;;8.98;;
6723;SDS011;3399;52.530;13.304;2022-08-19T06:42:09;10.02;;;9.13;;
6723;SDS011;3399;52.530;13.304;2022-08-19T06:44:38;9.77;;;8.98;;
6723;SDS011;3399;52.530;13.304;2022-08-19T06:47:06;10.65;;;9.75;;
6723;SDS011;3399;52.530;13.304;2022-08-19T06:49:34;10.52;;;8.77;;
6723;SDS011;3399;52.530;13.304;2022-08-19T06:51:59;10.05;;;9.25;;
6723;SDS011;3399;52.530;13.304;2022-08-19T06:54:26;10.80;;;9.90;;
6723;SDS011;3399;52.530;13.304;2022-08-19T06:56:54;10.50;;;9.70;;
6723;SDS011;3399;52.530;13.304;2022-08-19T06:59:21;10.65;;;9.85;;
6723;SDS011;3399;52.530;13.304;2022-08-19T07:01:50;12.38;;;10.25;;
6723;SDS011;3399;52.530;13.304;2022-08-19T07:04:18;12.00;;;10.90;;
6723;SDS011;3399;52.530;13.304;2022-08-19T07:06:46;11.70;;;10.77;;
6723;SDS011;3399;52.530;13.304;2022-08-19T07:09:12;11.00;;;10.02;;
6723;SDS011;3399;52.530;13.304;2022-08-19T07:11:43;11.65;;;10.68;;
6723;SDS011;3399;52.530;13.304;2022-08-19T07:14:18;11.15;;;10.25;;
6723;SDS011;3399;52.530;13.304;2022-08-19T07:16:47;11.10;;;10.25;;
6723;SDS011;3399;52.530;13.304;2022-08-19T07:19:14;10.85;;;9.93;;
6723;SDS011;3399;52.530;13.304;2022-08-19T07:21:40;12.13;;;11.02;;
6723;SDS011;3399;52.530;13.304;2022-08-19T07:24:06;11.50;;;10.40;;
6723;SDS011;3399;52.530;13.304;2022-08-19T07:26:37;11.75;;;10.60;;
6723;SDS011;3399;52.530;13.304;2022-08-19T07:29:05;11.32;;;10.32;;
6723;SDS011;3399;52.530;13.304;2022-08-19T07:31:31;10.63;;;9.60;;
6723;SDS011;3399;52.530;13.304;2022-08-19T07:34:00;10.68;;;9.63;;
6723;SDS011;3399;52.530;13.304;2022-08-19T07:36:27;11.00;;;10.10;;
6723;SDS011;3399;52.530;13.304;2022-08-19T07:38:57;16.83;;;10.80;;
6723;SDS011;3399;52.530;13.304;2022-08-19T07:41:25;11.65;;;10.55;;
6723;SDS011;3399;52.530;13.304;2022-08-19T07:43:53;12.73;;;11.65;;
6723;SDS011;3399;52.530;13.304;2022-08-19T07:46:19;13.20;;;12.10;;
6723;SDS011;3399;52.530;13.304;2022-08-19T07:48:46;13.13;;;11.98;;
6723;SDS011;3399;52.530;13.304;2022-08-19T07:51:14;13.63;;;12.52;;
6723;SDS011;3399;52.530;13.304;2022-08-19T07:53:41;12.82;;;11.73;;
6723;SDS011;3399;52.530;13.304;2022-08-19T07:56:09;12.07;;;11.18;;
6723;SDS011;3399;52.530;13.304;2022-08-19T07:58:36;13.52;;;12.25;;
6723;SDS011;3399;52.530;13.304;2022-08-19T08:01:04;12.82;;;11.63;;
6723;SDS011;3399;52.530;13.304;2022-08-19T08:03:31;12.70;;;11.52;;
6723;SDS011;3399;52.530;13.304;2022-08-19T08:06:16;13.30;;;12.23;;
6723;SDS011;3399;52.530;13.304;2022-08-19T08:09:01;12.40;;;11.35;;
6723;SDS011;3399;52.530;13.304;2022-08-19T08:11:41;13.18;;;11.98;;
6723;SDS011;3399;52.530;13.304;2022-08-19T08:14:14;13.38;;;11.95;;
6723;SDS011;3399;52.530;13.304;2022-08-19T08:16:46;13.65;;;12.35;;
6723;SDS011;3399;52.530;13.304;2022-08-19T08:19:12;13.15;;;11.98;;
6723;SDS011;3399;52.530;13.304;2022-08-19T08:21:39;13.02;;;11.93;;
6723;SDS011;3399;52.530;13.304;2022-08-19T08:24:05;13.77;;;12.57;;
6723;SDS011;3399;52.530;13.304;2022-08-19T08:26:31;14.73;;;13.43;;
6723;SDS011;3399;52.530;13.304;2022-08-19T08:28:57;14.23;;;12.80;;
6723;SDS011;3399;52.530;13.304;2022-08-19T08:31:22;13.65;;;12.55;;
6723;SDS011;3399;52.530;13.304;2022-08-19T08:33:48;12.95;;;11.85;;
6723;SDS011;3399;52.530;13.304;2022-08-19T08:36:14;13.73;;;12.40;;
6723;SDS011;3399;52.530;13.304;2022-08-19T08:38:41;14.77;;;13.23;;
6723;SDS011;3399;52.530;13.304;2022-08-19T08:41:16;14.02;;;12.75;;
6723;SDS011;3399;52.530;13.304;2022-08-19T08:43:49;14.10;;;12.88;;
6723;SDS011;3399;52.530;13.304;2022-08-19T08:46:20;13.82;;;12.57;;
6723;SDS011;3399;52.530;13.304;2022-08-19T08:54:50;14.07;;;12.88;;
6723;SDS011;3399;52.530;13.304;2022-08-19T08:57:21;15.38;;;14.07;;
6723;SDS011;3399;52.530;13.304;2022-08-19T09:00:09;14.55;;;13.35;;
6723;SDS011;3399;52.530;13.304;2022-08-19T09:02:42;14.15;;;12.68;;
6723;SDS011;3399;52.530;13.304;2022-08-19T09:05:08;14.18;;;12.75;;
6723;SDS011;3399;52.530;13.304;2022-08-19T09:07:49;13.10;;;12.13;;
6723;SDS011;3399;52.530;13.304;2022-08-19T09:10:32;13.32;;;12.18;;
6723;SDS011;3399;52.530;13.304;2022-08-19T09:15:54;13.65;;;12.45;;
6723;SDS011;3399;52.530;13.304;2022-08-19T09:18:49;13.32;;;12.20;;
6723;SDS011;3399;52.530;13.304;2022-08-19T09:21:20;13.77;;;12.68;;
6723;SDS011;3399;52.530;13.304;2022-08-19T09:23:47;13.90;;;12.57;;
6723;SDS011;3399;52.530;13.304;2022-08-19T09:26:14;13.95;;;12.75;;
6723;SDS011;3399;52.530;13.304;2022-08-19T09:28:46;13.90;;;12.57;;
6723;SDS011;3399;52.530;13.304;2022-08-19T09:31:13;13.98;;;12.77;;
6723;SDS011;3399;52.530;13.304;2022-08-19T09:33:40;11.38;;;10.48;;
6723;SDS011;3399;52.530;13.304;2022-08-19T09:36:09;13.00;;;11.95;;
6723;SDS011;3399;52.530;13.304;2022-08-19T09:38:38;12.88;;;11.75;;
6723;SDS011;3399;52.530;13.304;2022-08-19T09:41:06;11.95;;;11.00;;
6723;SDS011;3399;52.530;13.304;2022-08-19T09:43:33;13.82;;;12.73;;
6723;SDS011;3399;52.530;13.304;2022-08-19T09:46:01;12.43;;;11.32;;
6723;SDS011;3399;52.530;13.304;2022-08-19T09:48:30;12.50;;;11.50;;
6723;SDS011;3399;52.530;13.304;2022-08-19T09:51:01;14.02;;;12.82;;
6723;SDS011;3399;52.530;13.304;2022-08-19T09:53:28;12.82;;;11.70;;
6723;SDS011;3399;52.530;13.304;2022-08-19T09:55:57;12.05;;;11.05;;
6723;SDS011;3399;52.530;13.304;2022-08-19T09:58:22;13.13;;;11.85;;
6723;SDS011;3399;52.530;13.304;2022-08-19T10:00:52;12.00;;;11.02;;
6723;SDS011;3399;52.530;13.304;2022-08-19T10:03:23;13.07;;;11.95;;
6723;SDS011;3399;52.530;13.304;2022-08-19T10:05:49;12.00;;;11.07;;
6723;SDS011;3399;52.530;13.304;2022-08-19T10:08:16;12.68;;;11.65;;
6723;SDS011;3399;52.530;13.304;2022-08-19T10:10:43;12.98;;;11.88;;
6723;SDS011;3399;52.530;13.304;2022-08-19T10:13:09;12.38;;;11.38;;
6723;SDS011;3399;52.530;13.304;2022-08-19T10:15:35;12.98;;;11.68;;
6723;SDS011;3399;52.530;13.304;2022-08-19T10:18:04;11.23;;;10.30;;
6723;SDS011;3399;52.530;13.304;2022-08-19T10:20:30;12.68;;;11.40;;
6723;SDS011;3399;52.530;13.304;2022-08-19T10:22:56;11.80;;;10.80;;
6723;SDS011;3399;52.530;13.304;2022-08-19T10:25:24;11.88;;;10.90;;
6723;SDS011;3399;52.530;13.304;2022-08-19T10:27:51;12.07;;;11.10;;
6723;SDS011;3399;52.530;13.304;2022-08-19T10:30:16;12.35;;;11.35;;
6723;SDS011;3399;52.530;13.304;2022-08-19T10:32:42;12.45;;;11.18;;
6723;SDS011;3399;52.530;13.304;2022-08-19T10:35:08;12.55;;;11.63;;
6723;SDS011;3399;52.530;13.304;2022-08-19T10:37:35;12.27;;;11.27;;
6723;SDS011;3399;52.530;13.304;2022-08-19T10:40:02;12.18;;;11.07;;
6723;SDS011;3399;52.530;13.304;2022-08-19T10:42:29;12.00;;;11.13;;
6723;SDS011;3399;52.530;13.304;2022-08-19T10:44:56;12.88;;;11.70;;
6723;SDS011;3399;52.530;13.304;2022-08-19T10:47:21;12.80;;;11.68;;
6723;SDS011;3399;52.530;13.304;2022-08-19T10:49:48;11.82;;;10.80;;
6723;SDS011;3399;52.530;13.304;2022-08-19T10:52:32;12.73;;;11.52;;
6723;SDS011;3399;52.530;13.304;2022-08-19T10:54:58;11.75;;;10.85;;
6723;SDS011;3399;52.530;13.304;2022-08-19T10:57:43;11.38;;;10.48;;
6723;SDS011;3399;52.530;13.304;2022-08-19T11:00:09;11.05;;;10.05;;
6723;SDS011;3399;52.530;13.304;2022-08-19T11:02:35;12.00;;;11.10;;
6723;SDS011;3399;52.530;13.304;2022-08-19T11:05:00;11.65;;;10.52;;
6723;SDS011;3399;52.530;13.304;2022-08-19T11:07:26;10.68;;;9.68;;
6723;SDS011;3399;52.530;13.304;2022-08-19T11:09:51;11.07;;;10.13;;
6723;SDS011;3399;52.530;13.304;2022-08-19T11:12:17;11.80;;;10.80;;
6723;SDS011;3399;52.530;13.304;2022-08-19T11:14:44;12.05;;;11.00;;
6723;SDS011;3399;52.530;13.304;2022-08-19T11:17:09;11.48;;;10.57;;
6723;SDS011;3399;52.530;13.304;2022-08-19T11:19:38;11.70;;;10.70;;
6723;SDS011;3399;52.530;13.304;2022-08-19T11:22:06;11.32;;;10.43;;
6723;SDS011;3399;52.530;13.304;2022-08-19T11:24:34;11.50;;;10.43;;
6723;SDS011;3399;52.530;13.304;2022-08-19T11:27:02;10.48;;;9.60;;
6723;SDS011;3399;52.530;13.304;2022-08-19T11:29:31;11.77;;;10.77;;
6723;SDS011;3399;52.530;13.304;2022-08-19T11:31:59;11.55;;;10.23;;
6723;SDS011;3399;52.530;13.304;2022-08-19T11:34:26;10.35;;;9.50;;
6723;SDS011;3399;52.530;13.304;2022-08-19T11:36:53;11.55;;;10.50;;
6723;SDS011;3399;52.530;13.304;2022-08-19T11:39:22;11.05;;;10.15;;
6723;SDS011;3399;52.530;13.304;2022-08-19T11:41:48;11.10;;;9.90;;
6723;SDS011;3399;52.530;13.304;2022-08-19T11:44:14;16.37;;;10.13;;
6723;SDS011;3399;52.530;13.304;2022-08-19T11:46:40;11.00;;;10.07;;
6723;SDS011;3399;52.530;13.304;2022-08-19T11:49:10;9.73;;;8.93;;
6723;SDS011;3399;52.530;13.304;2022-08-19T11:51:35;9.82;;;9.13;;
6723;SDS011;3399;52.530;13.304;2022-08-19T11:54:02;9.88;;;9.07;;
6723;SDS011;3399;52.530;13.304;2022-08-19T11:56:30;10.65;;;9.73;;
6723;SDS011;3399;52.530;13.304;2022-08-19T11:58:56;10.15;;;9.35;;
6723;SDS011;3399;52.530;13.304;2022-08-19T12:01:22;9.10;;;8.40;;
6723;SDS011;3399;52.530;13.304;2022-08-19T12:03:49;8.93;;;8.23;;
6723;SDS011;3399;52.530;13.304;2022-08-19T12:06:17;9.73;;;8.93;;
6723;SDS011;3399;52.530;13.304;2022-08-19T12:08:45;8.75;;;8.07;;
6723;SDS011;3399;52.530;13.304;2022-08-19T12:11:11;9.43;;;7.68;;
6723;SDS011;3399;52.530;13.304;2022-08-19T12:13:38;8.15;;;7.55;;
6723;SDS011;3399;52.530;13.304;2022-08-19T12:16:11;8.65;;;7.95;;
6723;SDS011;3399;52.530;13.304;2022-08-19T12:18:40;8.30;;;7.70;;
6723;SDS011;3399;52.530;13.304;2022-08-19T12:21:10;8.75;;;8.02;;
6723;SDS011;3399;52.530;13.304;2022-08-19T12:23:37;9.30;;;8.35;;
6723;SDS011;3399;52.530;13.304;2022-08-19T12:26:03;11.23;;;8.40;;
6723;SDS011;3399;52.530;13.304;2022-08-19T12:28:28;8.82;;;7.95;;
6723;SDS011;3399;52.530;13.304;2022-08-19T12:30:55;8.65;;;8.00;;
6723;SDS011;3399;52.530;13.304;2022-08-19T12:33:21;8.40;;;7.78;;
6723;SDS011;3399;52.530;13.304;2022-08-19T12:35:50;10.77;;;7.60;;
6723;SDS011;3399;52.530;13.304;2022-08-19T12:38:16;7.22;;;6.72;;
6723;SDS011;3399;52.530;13.304;2022-08-19T12:40:41;8.02;;;7.32;;
6723;SDS011;3399;52.530;13.304;2022-08-19T12:43:11;8.48;;;7.78;;
6723;SDS011;3399;52.530;13.304;2022-08-19T12:45:36;8.05;;;7.38;;
6723;SDS011;3399;52.530;13.304;2022-08-19T12:48:02;8.45;;;7.65;;
6723;SDS011;3399;52.530;13.304;2022-08-19T12:50:28;8.50;;;7.90;;
6723;SDS011;3399;52.530;13.304;2022-08-19T12:52:54;9.35;;;8.30;;
6723;SDS011;3399;52.530;13.304;2022-08-19T12:55:19;8.88;;;8.15;;
6723;SDS011;3399;52.530;13.304;2022-08-19T12:57:45;8.57;;;7.97;;
6723;SDS011;3399;52.530;13.304;2022-08-19T13:00:12;9.43;;;8.57;;
6723;SDS011;3399;52.530;13.304;2022-08-19T13:02:40;9.40;;;8.63;;
6723;SDS011;3399;52.530;13.304;2022-08-19T13:05:10;9.68;;;8.88;;
6723;SDS011;3399;52.530;13.304;2022-08-19T13:07:38;8.85;;;8.13;;
6723;SDS011;3399;52.530;13.304;2022-08-19T13:10:05;9.70;;;8.90;;
6723;SDS011;3399;52.530;13.304;2022-08-19T13:12:32;10.48;;;9.60;;
6723;SDS011;3399;52.530;13.304;2022-08-19T13:14:57;9.35;;;8.65;;
6723;SDS011;3399;52.530;13.304;2022-08-19T13:17:23;9.88;;;9.02;;
6723;SDS011;3399;52.530;13.304;2022-08-19T13:19:48;9.93;;;9.13;;
6723;SDS011;3399;52.530;13.304;2022-08-19T13:22:15;11.05;;;9.80;;
6723;SDS011;3399;52.530;13.304;2022-08-19T13:24:41;9.90;;;8.95;;
6723;SDS011;3399;52.530;13.304;2022-08-19T13:27:07;9.73;;;8.82;;
6723;SDS011;3399;52.530;13.304;2022-08-19T13:29:33;10.20;;;9.20;;
6723;SDS011;3399;52.530;13.304;2022-08-19T13:32:17;11.05;;;10.05;;
6723;SDS011;3399;52.530;13.304;2022-08-19T13:35:01;11.23;;;9.20;;
6723;SDS011;3399;52.530;13.304;2022-08-19T13:37:27;11.25;;;10.35;;
6723;SDS011;3399;52.530;13.304;2022-08-19T13:40:09;10.95;;;10.05;;
6723;SDS011;3399;52.530;13.304;2022-08-19T13:42:43;10.15;;;9.35;;
6723;SDS011;3399;52.530;13.304;2022-08-19T13:45:12;9.48;;;8.57;;
6723;SDS011;3399;52.530;13.304;2022-08-19T13:47:38;10.25;;;9.35;;
6723;SDS011;3399;52.530;13.304;2022-08-19T13:50:08;10.13;;;9.43;;
6723;SDS011;3399;52.530;13.304;2022-08-19T13:52:35;10.68;;;9.57;;
6723;SDS011;3399;52.530;13.304;2022-08-19T13:55:01;10.98;;;10.07;;
6723;SDS011;3399;52.530;13.304;2022-08-19T13:57:28;10.57;;;9.85;;
6723;SDS011;3399;52.530;13.304;2022-08-19T13:59:53;10.55;;;9.65;;
6723;SDS011;3399;52.530;13.304;2022-08-19T14:02:19;10.18;;;9.30;;
6723;SDS011;3399;52.530;13.304;2022-08-19T14:04:45;9.73;;;8.77;;
6723;SDS011;3399;52.530;13.304;2022-08-19T14:07:10;8.77;;;8.18;;
6723;SDS011;3399;52.530;13.304;2022-08-19T14:09:36;10.32;;;9.43;;
6723;SDS011;3399;52.530;13.304;2022-08-19T14:12:01;10.77;;;9.98;;
6723;SDS011;3399;52.530;13.304;2022-08-19T14:14:27;10.70;;;9.63;;
6723;SDS011;3399;52.530;13.304;2022-08-19T14:16:53;10.77;;;9.77;;
6723;SDS011;3399;52.530;13.304;2022-08-19T14:19:19;10.32;;;9.52;;
6723;SDS011;3399;52.530;13.304;2022-08-19T14:21:45;9.90;;;9.15;;
6723;SDS011;3399;52.530;13.304;2022-08-19T14:24:10;9.60;;;8.80;;
6723;SDS011;3399;52.530;13.304;2022-08-19T14:26:35;10.55;;;9.20;;
6723;SDS011;3399;52.530;13.304;2022-08-19T14:29:01;10.50;;;9.52;;
6723;SDS011;3399;52.530;13.304;2022-08-19T14:31:27;9.85;;;9.15;;
6723;SDS011;3399;52.530;13.304;2022-08-19T14:33:52;10.40;;;8.85;;
6723;SDS011;3399;52.530;13.304;2022-08-19T14:36:18;9.57;;;8.77;;
6723;SDS011;3399;52.530;13.304;2022-08-19T14:38:46;9.20;;;8.35;;
6723;SDS011;3399;52.530;13.304;2022-08-19T14:41:15;9.27;;;8.32;;
6723;SDS011;3399;52.530;13.304;2022-08-19T14:43:45;8.73;;;8.02;;
6723;SDS011;3399;52.530;13.304;2022-08-19T14:46:15;9.27;;;8.48;;
6723;SDS011;3399;52.530;13.304;2022-08-19T14:48:42;8.40;;;7.80;;
6723;SDS011;3399;52.530;13.304;2022-08-19T14:51:08;10.80;;;9.90;;
6723;SDS011;3399;52.530;13.304;2022-08-19T14:53:34;10.00;;;9.15;;
6723;SDS011;3399;52.530;13.304;2022-08-19T14:55:59;8.50;;;7.70;;
6723;SDS011;3399;52.530;13.304;2022-08-19T14:58:26;8.13;;;7.43;;
6723;SDS011;3399;52.530;13.304;2022-08-19T15:00:52;8.82;;;8.15;;
6723;SDS011;3399;52.530;13.304;2022-08-19T15:03:17;8.45;;;7.63;;